Time;durP1;ratioP1;P1;durP2;ratioP2;P2;SDS_P1;SDS_P2;PMS_P1;PMS_P2;Temp;Humidity;BMP_temperature;BMP_pressure;BME280_temperature;BME280_humidity;BME280_pressure;Samples;Min_cycle;Max_cycle;Signal;HPM_P1;HPM_P2
2022/12/20 00:01:54;;;;;;;1.50;1.50;;;16.40;59.60;;;;;;5086668;28;44855;-69
2022/12/20 00:04:22;;;;;;;1.60;1.60;;;16.40;59.50;;;;;;5084416;28;43488;-74
2022/12/20 00:06:50;;;;;;;1.53;1.53;;;16.40;59.40;;;;;;5102225;28;43502;-69
2022/12/20 00:09:18;;;;;;;1.50;1.50;;;16.40;59.40;;;;;;5083350;28;44187;-72
2022/12/20 00:11:46;;;;;;;1.63;1.63;;;16.40;59.50;;;;;;5086428;28;44352;-71
2022/12/20 00:14:15;;;;;;;1.60;1.60;;;16.40;59.60;;;;;;5086799;28;43429;-70
2022/12/20 00:16:43;;;;;;;1.53;1.53;;;16.30;59.50;;;;;;5099152;28;43550;-70
2022/12/20 00:19:11;;;;;;;1.80;1.80;;;16.30;59.50;;;;;;5097167;28;43916;-69
2022/12/20 00:21:39;;;;;;;1.70;1.70;;;16.30;59.50;;;;;;5105435;28;43406;-70
2022/12/20 00:24:07;;;;;;;1.60;1.60;;;16.30;59.60;;;;;;5104817;28;43357;-71
2022/12/20 00:26:36;;;;;;;1.60;1.60;;;16.30;59.60;;;;;;5106428;27;43495;-72
2022/12/20 00:29:05;;;;;;;1.40;1.40;;;16.30;59.70;;;;;;5108341;28;43840;-70
2022/12/20 00:31:34;;;;;;;1.40;1.40;;;16.30;59.80;;;;;;5108353;28;43434;-69
2022/12/20 00:34:02;;;;;;;1.60;1.60;;;16.30;59.80;;;;;;5090469;28;43440;-70
2022/12/20 00:36:31;;;;;;;1.60;1.60;;;16.30;59.70;;;;;;5108227;28;43537;-72
2022/12/20 00:39:00;;;;;;;1.60;1.60;;;16.40;59.50;;;;;;5108423;28;43849;-69
2022/12/20 00:41:29;;;;;;;1.50;1.50;;;16.40;59.40;;;;;;5090065;28;44405;-69
2022/12/20 00:43:57;;;;;;;1.40;1.40;;;16.40;59.50;;;;;;5084211;28;43563;-70
2022/12/20 00:46:25;;;;;;;1.67;1.67;;;16.40;59.50;;;;;;5109149;28;43456;-71
2022/12/20 00:48:54;;;;;;;1.50;1.50;;;16.30;59.50;;;;;;5105212;28;43696;-73
2022/12/20 00:51:23;;;;;;;1.50;1.50;;;16.30;59.60;;;;;;5090619;28;44538;-69
2022/12/20 00:53:51;;;;;;;1.30;1.30;;;16.40;60.30;;;;;;5107323;28;43466;-71
2022/12/20 00:56:19;;;;;;;1.40;1.40;;;16.30;59.60;;;;;;5090468;28;43559;-69
2022/12/20 00:58:48;;;;;;;1.40;1.40;;;16.30;59.60;;;;;;5088734;28;44921;-70
2022/12/20 01:01:18;;;;;;;1.40;1.40;;;16.30;59.70;;;;;;5086882;28;45085;-72
2022/12/20 01:03:48;;;;;;;1.30;1.30;;;16.30;59.80;;;;;;5089895;28;43472;-70
2022/12/20 01:06:17;;;;;;;1.60;1.60;;;16.30;59.80;;;;;;5104409;28;43459;-70
2022/12/20 01:08:46;;;;;;;1.40;1.40;;;16.30;59.90;;;;;;5089532;28;45654;-69
2022/12/20 01:11:15;;;;;;;1.33;1.33;;;16.30;59.80;;;;;;5108178;28;43382;-70
2022/12/20 01:13:44;;;;;;;1.40;1.40;;;16.40;59.60;;;;;;5088242;28;43447;-70
2022/12/20 01:16:13;;;;;;;1.27;1.27;;;16.40;59.40;;;;;;5108019;28;43888;-71
2022/12/20 01:18:42;;;;;;;1.40;1.40;;;16.50;59.50;;;;;;5082755;28;45401;-70
2022/12/20 01:21:10;;;;;;;1.40;1.40;;;16.40;59.50;;;;;;5088631;28;43463;-69
2022/12/20 01:23:40;;;;;;;1.50;1.50;;;16.40;59.60;;;;;;5089844;28;43380;-71
2022/12/20 01:26:10;;;;;;;1.30;1.30;;;16.40;59.70;;;;;;5082703;28;43935;-69
2022/12/20 01:28:39;;;;;;;1.30;1.30;;;16.40;59.60;;;;;;5082744;28;45395;-70
2022/12/20 01:31:08;;;;;;;1.53;1.53;;;16.40;59.60;;;;;;5107704;28;43393;-73
2022/12/20 01:33:36;;;;;;;1.57;1.57;;;16.40;59.70;;;;;;5090023;28;43419;-70
2022/12/20 01:36:05;;;;;;;1.30;1.30;;;16.30;59.70;;;;;;5089402;28;43587;-72
2022/12/20 01:38:34;;;;;;;1.30;1.30;;;16.30;59.80;;;;;;5106515;27;43603;-69
2022/12/20 01:41:03;;;;;;;1.40;1.40;;;16.30;59.80;;;;;;5085939;28;44665;-69
2022/12/20 01:43:46;;;;;;;1.40;1.40;;;16.30;59.90;;;;;;5089022;28;43409;-69
2022/12/20 01:46:14;;;;;;;1.30;1.30;;;16.30;59.80;;;;;;5090711;28;43604;-71
2022/12/20 01:48:42;;;;;;;1.30;1.30;;;16.30;59.80;;;;;;5089585;28;45669;-70
2022/12/20 01:51:11;;;;;;;1.50;1.50;;;16.30;59.90;;;;;;5085326;28;43950;-71
2022/12/20 01:53:39;;;;;;;1.20;1.20;;;16.30;59.90;;;;;;5107536;28;43356;-69
2022/12/20 01:56:08;;;;;;;1.30;1.30;;;16.30;59.90;;;;;;5107099;28;43399;-70
2022/12/20 01:58:36;;;;;;;1.33;1.33;;;16.30;60.00;;;;;;5088574;28;45877;-69
2022/12/20 02:01:04;;;;;;;1.20;1.20;;;16.30;60.00;;;;;;5081257;28;45118;-70
2022/12/20 02:03:32;;;;;;;1.30;1.30;;;16.40;60.00;;;;;;5069531;28;43483;-72
2022/12/20 02:06:14;;;;;;;1.23;1.23;;;16.40;59.70;;;;;;5059237;28;43535;-71
2022/12/20 02:08:42;;;;;;;1.20;1.20;;;16.50;59.60;;;;;;5085916;28;43662;-72
2022/12/20 02:11:15;;;;;;;1.20;1.20;;;16.50;59.60;;;;;;5081178;28;43552;-71
2022/12/20 02:13:46;;;;;;;1.40;1.40;;;16.50;59.70;;;;;;5069171;28;43386;-72
2022/12/20 02:16:14;;;;;;;1.10;1.10;;;16.40;59.70;;;;;;5069119;28;44040;-72
2022/12/20 02:18:44;;;;;;;1.30;1.30;;;16.40;59.80;;;;;;5087290;28;43648;-69
2022/12/20 02:21:16;;;;;;;1.10;1.10;;;16.40;59.80;;;;;;5088338;28;43949;-70
2022/12/20 02:23:55;;;;;;;1.20;1.20;;;16.40;59.80;;;;;;5081125;28;43405;-71
2022/12/20 02:26:54;;;;;;;1.20;1.20;;;16.40;59.80;;;;;;5064681;28;43615;-72
2022/12/20 02:29:25;;;;;;;1.30;1.30;;;16.40;59.90;;;;;;5087410;28;43937;-70
2022/12/20 02:32:00;;;;;;;1.20;1.20;;;16.40;59.90;;;;;;5068800;28;44379;-71
2022/12/20 02:34:29;;;;;;;1.30;1.30;;;16.30;59.90;;;;;;5063008;28;43448;-71
2022/12/20 02:36:56;;;;;;;1.10;1.10;;;16.30;59.90;;;;;;5087239;28;43514;-72
2022/12/20 02:39:25;;;;;;;1.00;1.00;;;16.40;60.00;;;;;;5067998;28;44218;-72
2022/12/20 02:41:54;;;;;;;1.20;1.20;;;16.30;59.90;;;;;;5087116;28;44076;-71
2022/12/20 02:47:12;;;;;;;1.10;1.10;;;16.30;60.00;;;;;;5068654;28;43518;-73
2022/12/20 02:49:41;;;;;;;1.17;1.17;;;16.30;60.00;;;;;;5064693;28;45970;-71
2022/12/20 02:52:09;;;;;;;1.20;1.20;;;16.30;60.20;;;;;;5063555;28;44761;-70
2022/12/20 02:54:37;;;;;;;1.20;1.20;;;16.40;60.20;;;;;;5066810;28;43375;-70
2022/12/20 02:57:08;;;;;;;1.23;1.23;;;16.50;60.00;;;;;;5067037;28;43358;-71
2022/12/20 02:59:37;;;;;;;1.17;1.17;;;16.50;59.70;;;;;;5064688;28;46012;-70
2022/12/20 03:02:05;;;;;;;1.10;1.10;;;16.50;59.50;;;;;;5066512;28;43371;-69
2022/12/20 03:04:36;;;;;;;1.17;1.17;;;16.50;59.60;;;;;;5062859;28;43937;-72
2022/12/20 03:07:05;;;;;;;1.20;1.20;;;16.50;59.70;;;;;;5062396;28;43435;-71
2022/12/20 03:09:35;;;;;;;1.10;1.10;;;16.50;59.80;;;;;;5064562;28;45713;-71
2022/12/20 03:12:03;;;;;;;1.20;1.20;;;16.50;59.70;;;;;;5064985;28;44809;-72
2022/12/20 03:14:33;;;;;;;1.10;1.10;;;16.50;59.80;;;;;;5064868;28;43999;-71
2022/12/20 03:17:04;;;;;;;1.20;1.20;;;16.40;59.80;;;;;;5064351;28;43975;-71
2022/12/20 03:19:32;;;;;;;1.10;1.10;;;16.40;59.80;;;;;;5064379;28;45875;-72
2022/12/20 03:22:01;;;;;;;1.00;1.00;;;16.40;59.90;;;;;;5063736;28;43793;-71
2022/12/20 03:24:32;;;;;;;1.13;1.13;;;16.40;60.00;;;;;;5058416;28;43451;-70
2022/12/20 03:27:05;;;;;;;1.20;1.20;;;16.40;60.00;;;;;;5065036;28;43499;-71
2022/12/20 03:29:33;;;;;;;1.00;1.00;;;16.40;60.00;;;;;;5065625;28;43869;-71
2022/12/20 03:32:01;;;;;;;0.93;0.93;;;16.40;60.00;;;;;;5061550;28;44779;-72
2022/12/20 03:34:29;;;;;;;1.10;1.10;;;16.40;60.00;;;;;;5062561;28;43467;-70
2022/12/20 03:36:57;;;;;;;1.20;1.20;;;16.40;60.10;;;;;;5065049;28;43415;-70
2022/12/20 03:39:27;;;;;;;1.10;1.10;;;16.40;60.20;;;;;;5065752;28;43615;-71
2022/12/20 03:41:55;;;;;;;1.20;1.20;;;16.30;60.30;;;;;;5064227;28;43506;-71
2022/12/20 03:44:25;;;;;;;1.00;1.00;;;16.40;60.10;;;;;;5066493;28;43990;-70
2022/12/20 03:46:54;;;;;;;1.00;1.00;;;16.40;60.10;;;;;;5064901;28;43532;-71
2022/12/20 03:49:22;;;;;;;1.23;1.23;;;16.40;60.10;;;;;;5069097;28;43618;-72
2022/12/20 03:51:51;;;;;;;0.97;0.97;;;16.40;60.10;;;;;;5068167;28;43957;-72
2022/12/20 03:54:19;;;;;;;0.90;0.90;;;16.40;60.20;;;;;;5086530;28;43864;-72
2022/12/20 03:57:05;;;;;;;1.10;1.10;;;16.30;60.10;;;;;;5068129;28;43396;-71
2022/12/20 03:59:34;;;;;;;1.00;1.00;;;16.40;60.30;;;;;;5067401;28;44117;-70
2022/12/20 04:02:05;;;;;;;1.00;1.00;;;16.40;60.90;;;;;;5068262;28;43512;-70
2022/12/20 04:04:34;;;;;;;1.27;1.27;;;16.50;60.00;;;;;;5066155;28;43586;-71
2022/12/20 04:07:01;;;;;;;1.10;1.10;;;16.50;59.80;;;;;;5070049;28;43629;-71
2022/12/20 04:09:31;;;;;;;1.10;1.10;;;16.50;59.80;;;;;;5070837;28;43845;-71
2022/12/20 04:12:07;;;;;;;1.07;1.07;;;16.50;59.80;;;;;;5070658;28;43358;-72
2022/12/20 04:14:37;;;;;;;1.00;1.00;;;16.50;59.90;;;;;;5070896;28;43982;-71
2022/12/20 04:17:06;;;;;;;0.90;0.90;;;16.50;60.00;;;;;;5064987;28;43606;-71
2022/12/20 04:19:35;;;;;;;0.97;0.97;;;16.50;60.00;;;;;;5070871;28;46444;-71
2022/12/20 04:22:04;;;;;;;0.90;0.90;;;16.50;60.00;;;;;;5070915;28;44782;-72
2022/12/20 04:24:49;;;;;;;0.90;0.90;;;16.40;60.00;;;;;;5067096;28;43454;-71
2022/12/20 04:27:24;;;;;;;0.90;0.90;;;16.40;60.00;;;;;;5071680;28;43978;-71
2022/12/20 04:29:54;;;;;;;1.00;1.00;;;16.40;60.10;;;;;;5069964;28;46009;-71
2022/12/20 04:32:23;;;;;;;0.93;0.93;;;16.40;60.30;;;;;;5067623;28;44761;-71
2022/12/20 04:34:51;;;;;;;1.03;1.03;;;16.40;60.30;;;;;;5070930;28;43353;-71
2022/12/20 04:37:20;;;;;;;1.00;1.00;;;16.40;60.00;;;;;;5089842;28;43463;-72
2022/12/20 04:39:53;;;;;;;1.07;1.07;;;16.50;60.10;;;;;;5069527;28;45775;-70
2022/12/20 04:42:26;;;;;;;1.10;1.10;;;16.50;60.00;;;;;;5070550;28;44636;-72
2022/12/20 04:44:55;;;;;;;0.90;0.90;;;16.40;60.00;;;;;;5068568;28;43514;-71
2022/12/20 04:47:27;;;;;;;0.80;0.80;;;16.40;60.10;;;;;;5070632;28;43558;-70
2022/12/20 04:49:55;;;;;;;1.00;1.00;;;16.40;60.20;;;;;;5069935;28;45336;-71
2022/12/20 04:55:15;;;;;;;0.93;0.93;;;16.40;60.10;;;;;;5066375;28;43414;-72
2022/12/20 04:57:44;;;;;;;0.90;0.90;;;16.40;60.20;;;;;;5070564;28;43486;-72
2022/12/20 05:00:14;;;;;;;1.00;1.00;;;16.40;60.20;;;;;;5068589;28;43829;-70
2022/12/20 05:02:44;;;;;;;1.00;1.00;;;16.40;60.30;;;;;;5066616;28;43432;-71
2022/12/20 05:05:16;;;;;;;0.90;0.90;;;16.40;60.30;;;;;;5070024;28;43415;-72
2022/12/20 05:07:49;;;;;;;0.80;0.80;;;16.40;60.50;;;;;;5070699;28;43494;-72
2022/12/20 05:10:18;;;;;;;0.80;0.80;;;16.50;60.40;;;;;;5070078;28;45435;-71
2022/12/20 05:12:48;;;;;;;0.90;0.90;;;16.60;60.00;;;;;;5068672;28;43555;-71
2022/12/20 05:15:28;;;;;;;0.90;0.90;;;16.60;59.90;;;;;;5070215;28;43446;-71
2022/12/20 05:17:58;;;;;;;0.90;0.90;;;16.60;59.80;;;;;;5064877;28;43487;-72
2022/12/20 05:20:32;;;;;;;0.80;0.80;;;16.60;59.90;;;;;;5069518;28;43899;-72
2022/12/20 05:28:39;;;;;;;1.03;1.03;;;16.50;60.00;;;;;;5069774;28;43584;-71
2022/12/20 05:31:07;;;;;;;0.90;0.90;;;16.50;60.10;;;;;;5069533;28;43831;-71
2022/12/20 05:33:36;;;;;;;0.87;0.87;;;16.50;60.10;;;;;;5069699;28;44648;-71
2022/12/20 05:36:05;;;;;;;1.50;1.40;;;16.50;60.20;;;;;;5063240;28;43393;-71
2022/12/20 05:38:33;;;;;;;1.83;1.73;;;16.40;60.20;;;;;;5063515;28;43433;-71
2022/12/20 05:41:05;;;;;;;1.90;1.80;;;16.40;60.30;;;;;;5068585;28;43914;-70
2022/12/20 05:43:34;;;;;;;2.00;1.87;;;16.40;60.30;;;;;;5068719;28;43534;-70
2022/12/20 05:46:05;;;;;;;1.80;1.70;;;16.40;60.20;;;;;;5069375;28;43966;-72
2022/12/20 05:48:42;;;;;;;1.67;1.57;;;16.40;60.30;;;;;;5066042;28;43608;-71
2022/12/20 05:51:10;;;;;;;1.90;1.80;;;16.40;60.30;;;;;;5087767;28;43600;-71
2022/12/20 05:53:56;;;;;;;2.50;2.13;;;16.40;60.30;;;;;;5068939;28;44703;-72
2022/12/20 05:56:39;;;;;;;3.43;2.57;;;16.40;60.40;;;;;;5068773;28;43457;-71
2022/12/20 05:59:08;;;;;;;2.60;2.40;;;16.40;60.60;;;;;;5088337;28;43603;-72
2022/12/20 06:01:38;;;;;;;4.13;2.50;;;16.50;60.40;;;;;;5068751;28;44117;-71
2022/12/20 06:04:06;;;;;;;2.53;2.33;;;16.50;60.10;;;;;;5069181;28;44492;-70
2022/12/20 06:06:34;;;;;;;3.27;2.50;;;16.50;60.00;;;;;;5068935;28;43423;-72
2022/12/20 06:09:02;;;;;;;2.37;2.17;;;16.60;60.00;;;;;;5068758;28;44003;-73
2022/12/20 06:11:39;;;;;;;3.37;2.73;;;16.60;60.10;;;;;;5067887;28;45985;-71
2022/12/20 06:14:10;;;;;;;2.77;2.57;;;16.50;60.20;;;;;;5068772;28;44831;-71
2022/12/20 06:16:45;;;;;;;3.07;2.30;;;16.50;60.10;;;;;;5084351;28;43442;-71
2022/12/20 06:19:15;;;;;;;2.60;2.40;;;16.50;60.10;;;;;;5066396;28;43520;-72
2022/12/20 06:21:50;;;;;;;2.40;2.20;;;16.50;60.10;;;;;;5066651;28;43840;-70
2022/12/20 06:24:24;;;;;;;2.50;2.30;;;16.50;60.20;;;;;;5068577;28;44445;-72
2022/12/20 06:26:53;;;;;;;2.80;2.60;;;16.50;60.30;;;;;;5068710;28;43538;-71
2022/12/20 06:29:23;;;;;;;3.20;2.57;;;16.50;60.40;;;;;;5069454;28;43508;-71
2022/12/20 06:31:57;;;;;;;2.70;2.50;;;16.50;60.50;;;;;;5068603;28;43967;-71
2022/12/20 06:34:25;;;;;;;2.53;2.33;;;16.50;60.40;;;;;;5068311;28;44471;-71
2022/12/20 06:36:53;;;;;;;2.40;2.30;;;16.50;60.40;;;;;;5068901;28;43410;-72
2022/12/20 06:39:25;;;;;;;2.33;2.23;;;16.50;60.40;;;;;;5066850;28;43789;-72
2022/12/20 06:42:01;;;;;;;4.27;2.60;;;16.50;60.40;;;;;;5068774;28;43931;-71
2022/12/20 06:44:29;;;;;;;3.33;2.50;;;16.40;60.30;;;;;;5066883;28;44035;-72
2022/12/20 06:46:58;;;;;;;3.70;2.37;;;16.50;60.60;;;;;;5081395;27;44010;-72
2022/12/20 06:49:26;;;;;;;2.63;2.40;;;16.50;60.60;;;;;;5068528;28;43451;-71
2022/12/20 06:51:55;;;;;;;3.60;2.70;;;16.60;60.50;;;;;;5068252;28;44107;-71
2022/12/20 06:54:32;;;;;;;4.20;2.40;;;16.60;60.10;;;;;;5064524;28;43669;-69
2022/12/20 06:57:00;;;;;;;2.73;2.30;;;16.70;60.00;;;;;;5068606;28;43482;-72
2022/12/20 06:59:28;;;;;;;2.60;2.50;;;16.60;59.90;;;;;;5068214;28;44008;-72
2022/12/20 07:01:57;;;;;;;2.63;2.30;;;16.60;60.00;;;;;;5086829;28;43787;-71
2022/12/20 07:04:26;;;;;;;2.63;2.40;;;16.60;60.10;;;;;;5086660;28;43469;-70
2022/12/20 07:06:54;;;;;;;2.40;2.23;;;16.60;60.10;;;;;;5084661;28;43399;-70
2022/12/20 07:09:22;;;;;;;2.23;2.10;;;16.60;60.10;;;;;;5068543;28;43550;-70
2022/12/20 07:11:50;;;;;;;3.00;2.80;;;16.60;60.20;;;;;;5086781;28;43899;-71
2022/12/20 07:14:18;;;;;;;2.50;2.30;;;16.60;60.20;;;;;;5068377;28;44822;-72
2022/12/20 07:16:46;;;;;;;1.97;1.87;;;16.60;60.30;;;;;;5083049;28;43524;-70
2022/12/20 07:19:16;;;;;;;2.50;2.30;;;16.50;60.30;;;;;;5085944;28;43415;-70
2022/12/20 07:21:44;;;;;;;2.30;2.17;;;16.60;60.40;;;;;;5083645;28;43945;-70
2022/12/20 07:24:12;;;;;;;2.23;2.13;;;16.50;60.30;;;;;;5086646;28;43441;-70
2022/12/20 07:26:40;;;;;;;2.40;2.20;;;16.50;60.30;;;;;;5086041;28;43550;-72
2022/12/20 07:29:08;;;;;;;2.37;2.27;;;16.60;60.40;;;;;;5087166;28;43505;-70
2022/12/20 07:31:42;;;;;;;2.33;2.23;;;16.60;60.50;;;;;;5086439;28;43591;-71
2022/12/20 07:34:10;;;;;;;2.83;2.43;;;16.60;60.50;;;;;;5067562;28;44249;-71
2022/12/20 07:36:40;;;;;;;2.70;2.50;;;16.50;60.40;;;;;;5088336;28;44033;-72
2022/12/20 07:39:08;;;;;;;2.43;2.27;;;16.50;60.50;;;;;;5068702;28;43634;-71
2022/12/20 07:41:35;;;;;;;2.60;2.40;;;16.50;60.40;;;;;;5071404;28;44931;-71
2022/12/20 07:44:04;;;;;;;2.27;2.13;;;16.60;60.50;;;;;;5090160;28;43474;-72
2022/12/20 07:46:33;;;;;;;2.27;2.13;;;16.50;60.40;;;;;;5071645;28;43447;-71
2022/12/20 07:49:01;;;;;;;2.30;2.10;;;16.50;60.40;;;;;;5087624;28;43929;-71
2022/12/20 07:51:31;;;;;;;2.43;2.30;;;16.50;60.40;;;;;;5070831;28;45778;-70
2022/12/20 07:54:02;;;;;;;2.20;2.00;;;16.50;60.50;;;;;;5090107;28;43429;-70
2022/12/20 07:56:30;;;;;;;2.30;2.10;;;16.50;60.60;;;;;;5089870;28;43401;-70
2022/12/20 07:59:04;;;;;;;4.03;2.40;;;16.60;60.50;;;;;;5071798;28;43436;-71
2022/12/20 08:01:32;;;;;;;2.33;2.20;;;16.70;60.30;;;;;;5089344;28;43618;-70
2022/12/20 08:04:02;;;;;;;2.37;2.27;;;16.80;60.00;;;;;;5089885;28;43427;-71
2022/12/20 08:06:30;;;;;;;2.30;2.00;;;16.80;59.80;;;;;;5089683;28;43389;-71
2022/12/20 08:09:00;;;;;;;2.63;2.43;;;16.80;59.90;;;;;;5083943;28;43448;-71
2022/12/20 08:11:28;;;;;;;2.43;2.23;;;16.70;59.90;;;;;;5070774;28;45738;-70
2022/12/20 08:13:56;;;;;;;2.43;2.33;;;16.70;60.00;;;;;;5089063;28;43573;-70
2022/12/20 08:16:25;;;;;;;2.63;2.43;;;16.70;60.00;;;;;;5083156;28;43950;-70
2022/12/20 08:18:53;;;;;;;2.00;1.90;;;16.70;60.10;;;;;;5089983;28;43394;-69
2022/12/20 08:21:21;;;;;;;2.73;2.50;;;16.70;60.10;;;;;;5089072;28;43887;-71
2022/12/20 08:23:49;;;;;;;2.27;2.10;;;16.70;60.30;;;;;;5089887;28;43401;-72
2022/12/20 08:26:18;;;;;;;2.37;2.23;;;16.60;60.30;;;;;;5089691;28;43458;-71
2022/12/20 08:28:46;;;;;;;2.40;2.30;;;16.60;60.40;;;;;;5065450;28;43598;-71
2022/12/20 08:31:14;;;;;;;2.47;2.27;;;16.60;60.40;;;;;;5083672;28;43883;-72
2022/12/20 08:33:42;;;;;;;2.33;2.13;;;16.60;60.30;;;;;;5089715;28;43970;-71
2022/12/20 08:36:11;;;;;;;2.40;2.20;;;16.60;60.40;;;;;;5088988;28;43466;-71
2022/12/20 08:38:39;;;;;;;2.53;2.33;;;16.60;60.50;;;;;;5089272;28;43565;-71
2022/12/20 08:41:09;;;;;;;2.10;2.00;;;16.60;60.50;;;;;;5089547;28;43742;-71
2022/12/20 08:43:39;;;;;;;1.90;1.80;;;16.60;60.60;;;;;;5089912;28;43489;-70
2022/12/20 08:46:07;;;;;;;2.00;1.90;;;16.60;60.60;;;;;;5088856;28;43473;-71
2022/12/20 08:48:35;;;;;;;2.20;2.00;;;16.60;60.50;;;;;;5089149;27;43502;-71
2022/12/20 08:51:04;;;;;;;2.30;2.10;;;16.60;60.50;;;;;;5052149;28;44357;-70
2022/12/20 08:53:32;;;;;;;2.60;2.17;;;16.60;60.50;;;;;;5047167;28;44832;-71
2022/12/20 08:56:04;;;;;;;2.13;2.03;;;16.60;60.60;;;;;;5051080;28;43881;-72
2022/12/20 08:58:32;;;;;;;1.93;1.93;;;16.60;60.60;;;;;;5052496;28;43974;-71
2022/12/20 09:01:03;;;;;;;2.30;2.10;;;16.60;60.70;;;;;;5051822;28;43837;-71
2022/12/20 09:03:34;;;;;;;2.13;2.03;;;16.60;60.70;;;;;;5056235;28;43423;-70
2022/12/20 09:06:05;;;;;;;1.87;1.77;;;16.60;60.60;;;;;;5051091;28;43423;-71
2022/12/20 09:08:33;;;;;;;1.87;1.77;;;16.80;60.40;;;;;;5050874;28;43464;-70
2022/12/20 09:11:04;;;;;;;2.00;1.90;;;16.80;60.00;;;;;;5055679;28;43859;-71
2022/12/20 09:13:32;;;;;;;1.90;1.80;;;16.80;60.00;;;;;;5049932;28;43968;-70
2022/12/20 09:16:09;;;;;;;2.27;2.17;;;16.80;60.10;;;;;;5047087;28;43383;-71
2022/12/20 09:18:37;;;;;;;1.90;1.80;;;16.80;60.30;;;;;;5051361;28;43914;-70
2022/12/20 09:21:06;;;;;;;2.17;2.07;;;16.70;60.10;;;;;;5052040;28;43828;-71
2022/12/20 09:23:35;;;;;;;1.73;1.73;;;16.70;60.10;;;;;;5054917;28;43897;-70
2022/12/20 09:26:03;;;;;;;1.90;1.80;;;16.70;60.20;;;;;;5049214;28;43483;-71
2022/12/20 09:28:31;;;;;;;2.10;2.00;;;16.70;60.30;;;;;;5049145;28;43394;-72
2022/12/20 09:31:00;;;;;;;1.83;1.73;;;16.70;60.30;;;;;;5053344;28;45661;-71
2022/12/20 09:33:29;;;;;;;2.10;2.00;;;16.70;60.40;;;;;;5056644;28;43421;-71
2022/12/20 09:35:58;;;;;;;2.20;2.10;;;16.60;60.50;;;;;;5049683;28;43961;-70
2022/12/20 09:38:26;;;;;;;1.70;1.70;;;16.70;60.50;;;;;;5052899;28;43898;-69
2022/12/20 09:40:55;;;;;;;2.20;2.10;;;16.70;60.50;;;;;;5049528;28;43591;-70
2022/12/20 09:43:23;;;;;;;1.93;1.83;;;16.60;60.50;;;;;;5051010;28;43381;-69
2022/12/20 09:45:53;;;;;;;1.90;1.80;;;16.60;60.60;;;;;;5052258;28;43395;-71
2022/12/20 09:48:22;;;;;;;2.00;1.90;;;16.60;60.60;;;;;;5052961;28;43520;-70
2022/12/20 09:50:56;;;;;;;4.87;2.20;;;16.60;60.70;;;;;;5092861;28;43862;-72
2022/12/20 09:53:28;;;;;;;3.57;2.13;;;16.60;60.90;;;;;;5088852;28;43425;-71
2022/12/20 09:55:59;;;;;;;2.17;2.07;;;16.70;60.60;;;;;;5087249;28;43417;-71
2022/12/20 09:58:34;;;;;;;2.03;1.93;;;16.70;60.50;;;;;;5088008;27;43571;-71
2022/12/20 10:01:11;;;;;;;2.10;2.00;;;16.80;60.50;;;;;;5068850;28;45742;-70
2022/12/20 10:03:42;;;;;;;2.27;2.17;;;16.70;61.20;;;;;;5069535;28;44342;-70
2022/12/20 10:06:17;;;;;;;2.67;2.50;;;16.70;60.50;;;;;;5083862;28;43407;-70
2022/12/20 10:08:45;;;;;;;2.90;2.70;;;16.70;60.70;;;;;;5088023;28;43415;-71
2022/12/20 10:11:41;;;;;;;2.10;2.00;;;16.70;60.60;;;;;;5087307;28;43999;-71
2022/12/20 10:14:28;;;;;;;2.50;2.30;;;16.70;60.60;;;;;;5069448;28;44855;-69
2022/12/20 10:16:58;;;;;;;2.47;2.37;;;16.70;60.60;;;;;;5068869;28;43452;-70
2022/12/20 10:19:46;;;;;;;2.83;2.63;;;16.60;60.60;;;;;;5087822;28;43493;-70
2022/12/20 10:22:17;;;;;;;2.63;2.43;;;16.60;60.60;;;;;;5084985;28;43929;-70
2022/12/20 10:24:48;;;;;;;2.80;2.60;;;16.60;60.70;;;;;;5082606;28;43393;-71
2022/12/20 10:27:17;;;;;;;3.90;2.70;;;16.60;60.90;;;;;;5064288;28;43456;-71
2022/12/20 10:29:45;;;;;;;3.20;3.00;;;16.70;60.70;;;;;;5086998;28;43540;-70
2022/12/20 10:32:14;;;;;;;2.97;2.70;;;16.70;60.50;;;;;;5087580;28;43895;-69
2022/12/20 10:34:46;;;;;;;2.63;2.43;;;16.70;60.40;;;;;;5069154;28;44883;-70
2022/12/20 10:37:17;;;;;;;3.90;2.90;;;16.70;60.40;;;;;;5085545;28;43457;-71
2022/12/20 10:39:47;;;;;;;3.03;2.83;;;16.70;60.50;;;;;;5069361;28;43537;-70
2022/12/20 10:42:34;;;;;;;3.30;2.90;;;16.70;60.60;;;;;;5086862;28;43603;-70
2022/12/20 10:45:02;;;;;;;2.67;2.47;;;16.70;60.60;;;;;;5087425;28;43879;-70
2022/12/20 10:47:36;;;;;;;3.00;2.80;;;16.70;60.50;;;;;;5068937;28;43438;-70
2022/12/20 10:50:15;;;;;;;3.17;2.93;;;16.70;60.50;;;;;;5063819;28;43536;-70
2022/12/20 10:52:44;;;;;;;2.80;2.60;;;16.70;60.50;;;;;;5081667;28;43964;-71
2022/12/20 10:55:40;;;;;;;3.43;2.73;;;16.60;60.50;;;;;;5086730;28;43833;-69
2022/12/20 10:58:14;;;;;;;3.63;2.80;;;16.60;60.60;;;;;;5050671;28;43407;-71
2022/12/20 11:00:42;;;;;;;3.37;3.07;;;16.60;60.60;;;;;;5087236;28;43466;-71
2022/12/20 11:03:14;;;;;;;4.90;3.30;;;16.70;60.50;;;;;;5085781;28;43978;-71
2022/12/20 11:05:53;;;;;;;3.03;2.83;;;16.80;60.30;;;;;;5083319;28;43734;-70
2022/12/20 11:08:25;;;;;;;2.77;2.57;;;16.80;60.20;;;;;;5087151;28;43391;-71
2022/12/20 11:11:15;;;;;;;2.87;2.73;;;16.80;60.30;;;;;;5085585;28;43430;-69
2022/12/20 11:13:43;;;;;;;3.43;3.17;;;16.80;60.40;;;;;;5086820;28;43595;-71
2022/12/20 11:16:34;;;;;;;4.60;3.30;;;16.70;60.40;;;;;;5086662;28;43525;-71
2022/12/20 11:19:15;;;;;;;2.90;2.60;;;16.70;60.40;;;;;;5078403;27;43884;-70
2022/12/20 11:21:46;;;;;;;3.53;3.23;;;16.70;60.40;;;;;;5086025;27;43490;-70
2022/12/20 11:24:18;;;;;;;3.40;3.20;;;16.70;60.50;;;;;;5086559;28;44805;-69
2022/12/20 11:26:55;;;;;;;3.13;2.93;;;16.70;60.50;;;;;;5086577;28;43397;-71
2022/12/20 11:29:50;;;;;;;3.33;3.13;;;16.70;60.60;;;;;;5068107;28;43569;-70
2022/12/20 11:32:25;;;;;;;3.20;3.00;;;16.60;60.60;;;;;;5083293;28;43511;-71
2022/12/20 11:34:57;;;;;;;3.40;3.20;;;16.60;60.60;;;;;;5085770;28;43756;-72
2022/12/20 11:37:26;;;;;;;3.27;3.07;;;16.60;60.60;;;;;;5067668;28;44445;-70
2022/12/20 11:40:05;;;;;;;3.37;3.17;;;16.70;60.70;;;;;;5083787;27;43446;-71
2022/12/20 11:42:42;;;;;;;3.60;3.30;;;16.70;60.80;;;;;;5086324;28;43433;-71
2022/12/20 11:45:14;;;;;;;3.33;3.10;;;16.70;60.80;;;;;;5085611;27;43899;-72
2022/12/20 11:48:04;;;;;;;3.43;3.23;;;16.70;60.80;;;;;;5086175;28;43429;-70
2022/12/20 11:50:42;;;;;;;3.40;3.20;;;16.60;60.90;;;;;;5083099;28;43841;-71
2022/12/20 11:53:13;;;;;;;3.70;3.40;;;16.70;60.90;;;;;;5086333;27;43421;-70
2022/12/20 11:55:43;;;;;;;3.60;3.37;;;16.80;61.40;;;;;;5086161;28;44047;-70
2022/12/20 11:58:13;;;;;;;3.33;3.13;;;16.80;60.40;;;;;;5086046;27;43442;-69
2022/12/20 12:00:51;;;;;;;3.20;2.90;;;16.80;60.20;;;;;;5067674;28;43417;-70
2022/12/20 12:03:21;;;;;;;3.60;3.30;;;16.80;60.30;;;;;;5086643;28;43472;-71
2022/12/20 12:05:52;;;;;;;3.60;3.40;;;16.80;60.40;;;;;;5086921;27;43864;-71
2022/12/20 12:08:23;;;;;;;3.70;3.50;;;16.80;60.50;;;;;;5067818;28;44672;-70
2022/12/20 12:10:56;;;;;;;3.60;3.30;;;16.80;60.50;;;;;;5086135;28;43426;-71
2022/12/20 12:13:26;;;;;;;3.67;3.40;;;16.80;60.50;;;;;;5086311;28;43421;-70
2022/12/20 12:15:55;;;;;;;3.53;3.33;;;16.70;61.20;;;;;;5069615;28;46151;-72
2022/12/20 12:18:24;;;;;;;3.67;3.47;;;16.70;60.60;;;;;;5084190;28;44146;-72
2022/12/20 12:20:56;;;;;;;3.70;3.50;;;16.70;60.70;;;;;;5085827;28;43998;-71
2022/12/20 12:23:26;;;;;;;3.63;3.40;;;16.70;60.80;;;;;;5089227;27;44019;-72
2022/12/20 12:25:55;;;;;;;3.80;3.50;;;16.70;60.70;;;;;;5089398;28;43876;-70
2022/12/20 12:28:23;;;;;;;4.10;3.80;;;16.70;60.70;;;;;;5072876;28;45124;-72
2022/12/20 12:30:54;;;;;;;3.60;3.40;;;16.70;60.80;;;;;;5089183;28;43423;-71
2022/12/20 12:33:24;;;;;;;3.70;3.50;;;16.70;60.80;;;;;;5090518;27;44005;-69
2022/12/20 12:36:04;;;;;;;3.33;3.23;;;16.70;60.80;;;;;;5072462;28;45698;-72
2022/12/20 12:38:54;;;;;;;4.10;3.80;;;16.70;60.90;;;;;;5089108;28;43489;-72
2022/12/20 12:42:14;;;;;;;3.20;3.10;;;16.70;61.00;;;;;;5086392;28;43418;-71
2022/12/20 12:44:47;;;;;;;3.90;3.60;;;16.80;60.80;;;;;;5071334;28;44165;-70
2022/12/20 12:47:17;;;;;;;3.57;3.37;;;16.80;60.40;;;;;;5089196;28;44088;-72
2022/12/20 12:49:47;;;;;;;3.63;3.43;;;16.90;60.60;;;;;;5088938;27;43459;-70
2022/12/20 12:52:37;;;;;;;3.40;3.30;;;16.80;60.50;;;;;;5089088;28;43458;-71
2022/12/20 12:55:21;;;;;;;3.67;3.47;;;16.80;60.60;;;;;;5088768;28;43441;-71
2022/12/20 12:57:55;;;;;;;3.90;3.70;;;16.80;60.70;;;;;;5087747;28;43892;-70
2022/12/20 13:00:51;;;;;;;3.50;3.20;;;16.80;60.70;;;;;;5088767;28;43474;-71
2022/12/20 13:03:36;;;;;;;3.40;3.20;;;16.80;60.70;;;;;;5076519;28;44123;-70
2022/12/20 13:06:37;;;;;;;3.77;3.57;;;16.80;60.80;;;;;;5089097;28;43469;-72
2022/12/20 13:09:21;;;;;;;3.40;3.20;;;16.70;60.70;;;;;;5085856;28;43661;-71
2022/12/20 13:11:49;;;;;;;3.20;3.00;;;16.70;60.90;;;;;;5084713;28;43470;-72
2022/12/20 13:14:48;;;;;;;3.20;3.10;;;16.70;60.90;;;;;;5086364;28;43418;-71
2022/12/20 13:17:45;;;;;;;3.23;3.13;;;16.70;60.90;;;;;;5088825;28;43423;-72
2022/12/20 13:20:21;;;;;;;3.10;3.00;;;16.70;60.80;;;;;;5086489;28;44005;-70
2022/12/20 13:23:16;;;;;;;3.50;3.30;;;16.70;60.90;;;;;;5067677;28;44787;-72